Aviation Digital Data Service (ADDS)

Output produced by TAFs form (0353 UTC 25 March 2017)
found at http://www.aviationweather.gov/adds/tafs/
 
KBJC 250347Z 00000KT 30SM SKC 04/M01 A3014 RMK LAST
KBJC 250241Z 2503/2524 12005KT P6SM FEW060 SCT100 
     FM250400 19006KT P6SM FEW250 
     FM250800 24006KT P6SM FEW250 
     FM251500 15008KT P6SM SCT250 
     FM252300 18006KT P6SM SCT090 BKN200